Time;durP1;ratioP1;P1;durP2;ratioP2;P2;SDS_P1;SDS_P2;PMS_P1;PMS_P2;Temp;Humidity;BMP_temperature;BMP_pressure;BME280_temperature;BME280_humidity;BME280_pressure;Samples;Min_cycle;Max_cycle;Signal;HPM_P1;HPM_P2
2023/10/30 00:00:30;;;;;;;8.55;1.70;;;13.80;74.40;;;;;;5093404;28;20477;-66
2023/10/30 00:02:56;;;;;;;8.65;2.33;;;13.80;74.30;;;;;;5096131;28;20119;-66
2023/10/30 00:05:21;;;;;;;6.28;1.55;;;13.80;74.40;;;;;;5093594;28;20032;-66
2023/10/30 00:07:47;;;;;;;5.30;1.70;;;13.80;74.40;;;;;;5094758;28;20445;-66
2023/10/30 00:10:13;;;;;;;6.85;1.92;;;13.80;75.00;;;;;;5094082;28;20024;-66
2023/10/30 00:12:39;;;;;;;8.32;1.80;;;13.80;74.30;;;;;;5095573;28;20028;-66
2023/10/30 00:15:05;;;;;;;9.77;2.13;;;13.70;74.30;;;;;;5094352;28;20337;-66
2023/10/30 00:17:31;;;;;;;9.48;2.17;;;13.70;74.30;;;;;;5095056;28;20039;-66
2023/10/30 00:19:57;;;;;;;7.15;1.88;;;13.70;74.50;;;;;;5093136;28;20032;-66
2023/10/30 00:22:22;;;;;;;6.22;2.03;;;13.70;74.50;;;;;;5094885;28;20028;-66
2023/10/30 00:24:48;;;;;;;8.25;2.15;;;13.70;74.60;;;;;;5095627;28;20031;-66
2023/10/30 00:27:16;;;;;;;7.13;1.65;;;13.70;74.60;;;;;;5096320;28;20026;-66
2023/10/30 00:29:42;;;;;;;10.18;1.75;;;13.70;74.80;;;;;;5095259;28;20012;-66
2023/10/30 00:32:08;;;;;;;9.55;2.20;;;13.70;74.90;;;;;;5096819;28;20040;-66
2023/10/30 00:34:35;;;;;;;4.53;1.65;;;13.70;75.00;;;;;;5096627;28;20314;-66
2023/10/30 00:37:01;;;;;;;10.60;2.22;;;13.70;75.00;;;;;;5093845;28;20020;-65
2023/10/30 00:39:30;;;;;;;8.82;2.38;;;13.80;75.00;;;;;;5095326;28;20032;-66
2023/10/30 00:41:56;;;;;;;9.07;2.50;;;13.80;75.10;;;;;;5087540;28;20034;-66
2023/10/30 00:44:21;;;;;;;7.18;1.77;;;13.80;75.10;;;;;;5079613;28;20024;-66
2023/10/30 00:46:48;;;;;;;9.75;2.20;;;13.70;75.10;;;;;;5097907;28;20042;-66
2023/10/30 00:49:14;;;;;;;6.90;1.70;;;13.80;75.20;;;;;;5078675;28;20052;-66
2023/10/30 00:51:40;;;;;;;7.38;2.38;;;13.80;75.20;;;;;;5096043;28;20062;-66
2023/10/30 00:54:06;;;;;;;9.93;2.28;;;13.80;75.20;;;;;;5095129;28;20031;-66
2023/10/30 00:56:31;;;;;;;10.85;2.17;;;13.80;75.20;;;;;;5095327;28;20056;-66
2023/10/30 00:58:57;;;;;;;6.50;1.83;;;13.80;75.30;;;;;;5095114;28;20401;-66
2023/10/30 01:01:25;;;;;;;7.25;1.98;;;13.80;75.30;;;;;;5093100;28;20027;-66
2023/10/30 01:03:50;;;;;;;6.95;2.08;;;13.80;75.40;;;;;;5094753;28;20016;-66
2023/10/30 01:06:16;;;;;;;14.27;2.13;;;13.80;75.40;;;;;;5093859;28;20028;-66
2023/10/30 01:08:42;;;;;;;8.75;2.13;;;13.80;75.40;;;;;;5088206;28;20020;-66
2023/10/30 01:11:09;;;;;;;10.88;2.00;;;13.80;75.40;;;;;;5074798;28;20039;-66
2023/10/30 01:13:36;;;;;;;7.75;1.75;;;13.90;75.40;;;;;;5093022;28;20463;-66
2023/10/30 01:16:02;;;;;;;4.75;1.55;;;13.80;75.30;;;;;;5092188;28;20061;-66
2023/10/30 01:18:28;;;;;;;5.45;1.63;;;13.80;75.40;;;;;;5095588;28;20109;-66
2023/10/30 01:20:54;;;;;;;8.18;1.90;;;13.80;75.40;;;;;;5093297;28;21676;-66
2023/10/30 01:23:20;;;;;;;9.95;1.77;;;13.80;75.40;;;;;;5111148;27;20024;-66
2023/10/30 01:25:47;;;;;;;7.00;2.20;;;13.80;75.50;;;;;;5094541;28;20020;-66
2023/10/30 01:28:12;;;;;;;6.30;1.80;;;13.90;75.60;;;;;;5094509;28;20024;-66
2023/10/30 01:30:38;;;;;;;9.05;2.42;;;13.80;75.50;;;;;;5091675;28;20036;-66
2023/10/30 01:33:04;;;;;;;10.10;1.92;;;13.80;75.50;;;;;;5093537;28;20435;-66
2023/10/30 01:35:30;;;;;;;8.30;1.77;;;13.80;75.60;;;;;;5092077;28;20467;-66
2023/10/30 01:37:56;;;;;;;9.02;2.47;;;13.80;75.70;;;;;;5097287;28;20016;-66
2023/10/30 01:40:21;;;;;;;8.45;2.00;;;13.80;75.80;;;;;;5095224;28;20020;-66
2023/10/30 01:42:47;;;;;;;6.60;1.77;;;13.80;75.90;;;;;;5094881;28;20410;-66
2023/10/30 01:45:13;;;;;;;9.70;1.90;;;13.80;75.90;;;;;;5094863;28;20498;-66
2023/10/30 01:47:39;;;;;;;7.80;2.13;;;13.80;75.80;;;;;;5095115;28;20444;-66
2023/10/30 01:50:07;;;;;;;10.52;2.05;;;13.80;75.80;;;;;;5093167;28;20024;-66
2023/10/30 01:52:34;;;;;;;6.60;1.58;;;13.80;75.80;;;;;;5093750;28;20073;-65
2023/10/30 01:55:00;;;;;;;12.20;2.13;;;13.80;75.90;;;;;;5094438;28;20016;-66
2023/10/30 01:57:28;;;;;;;10.27;1.83;;;13.80;75.90;;;;;;5092700;28;20372;-66
2023/10/30 01:59:56;;;;;;;6.72;1.80;;;13.80;76.00;;;;;;5093610;28;20059;-66
2023/10/30 02:02:23;;;;;;;7.95;2.10;;;13.80;75.90;;;;;;5070706;28;20055;-66
2023/10/30 02:04:49;;;;;;;8.93;1.92;;;13.80;76.00;;;;;;5090925;28;20048;-66
2023/10/30 02:07:15;;;;;;;9.70;1.92;;;13.90;76.00;;;;;;5092505;28;20049;-66
2023/10/30 02:09:42;;;;;;;6.68;2.03;;;13.80;76.00;;;;;;5091807;28;20031;-66
2023/10/30 02:12:09;;;;;;;7.82;1.95;;;13.80;76.10;;;;;;5094527;28;20036;-66
2023/10/30 02:14:35;;;;;;;5.97;1.70;;;13.80;76.10;;;;;;5091197;28;20024;-66
2023/10/30 02:17:01;;;;;;;10.23;2.22;;;13.80;76.20;;;;;;5094848;28;20046;-66
2023/10/30 02:19:27;;;;;;;8.55;1.83;;;13.80;76.30;;;;;;5091974;28;20184;-65
2023/10/30 02:21:54;;;;;;;9.65;1.95;;;13.80;76.40;;;;;;5092561;28;20035;-65
2023/10/30 02:24:21;;;;;;;8.77;1.90;;;13.80;76.40;;;;;;5095145;28;20029;-66
2023/10/30 02:26:47;;;;;;;8.45;2.00;;;13.80;76.40;;;;;;5072924;28;20031;-66
2023/10/30 02:29:14;;;;;;;8.70;1.73;;;13.80;76.40;;;;;;5097722;28;20377;-66
2023/10/30 02:31:41;;;;;;;6.75;1.88;;;13.90;76.50;;;;;;5066152;28;20109;-66
2023/10/30 02:34:07;;;;;;;7.22;1.73;;;13.80;76.50;;;;;;5095785;28;20028;-66
2023/10/30 02:36:32;;;;;;;6.43;1.55;;;13.80;76.60;;;;;;5092241;28;20036;-66
2023/10/30 02:38:58;;;;;;;9.57;2.20;;;13.90;76.60;;;;;;5094508;28;20097;-66
2023/10/30 02:41:29;;;;;;;7.32;1.80;;;13.90;76.60;;;;;;5076927;28;20504;-66
2023/10/30 02:43:55;;;;;;;6.82;1.75;;;13.90;76.60;;;;;;5074047;28;20370;-66
2023/10/30 02:46:21;;;;;;;8.50;1.60;;;13.90;76.70;;;;;;5072697;28;20115;-65
2023/10/30 02:48:48;;;;;;;8.13;1.35;;;13.80;76.60;;;;;;5091125;28;20399;-66
2023/10/30 02:51:13;;;;;;;6.13;1.38;;;13.90;76.80;;;;;;5095699;28;20051;-66
2023/10/30 02:53:39;;;;;;;5.78;1.30;;;13.80;76.80;;;;;;5094581;28;20020;-65
2023/10/30 02:56:07;;;;;;;8.77;1.63;;;13.90;76.90;;;;;;5094039;28;20377;-65
2023/10/30 02:58:32;;;;;;;9.73;1.75;;;13.90;76.80;;;;;;5091180;28;20032;-66
2023/10/30 03:01:00;;;;;;;7.18;1.65;;;13.90;76.80;;;;;;5093110;28;20072;-66
2023/10/30 03:03:26;;;;;;;12.13;1.98;;;13.90;76.80;;;;;;5096038;28;20020;-66
2023/10/30 03:05:52;;;;;;;7.53;1.80;;;13.90;76.80;;;;;;5096350;28;20385;-66
2023/10/30 03:08:18;;;;;;;7.00;1.90;;;13.90;76.80;;;;;;5093670;28;20100;-66
2023/10/30 03:10:46;;;;;;;7.75;2.00;;;13.90;76.80;;;;;;5095228;28;20032;-66
2023/10/30 03:13:12;;;;;;;7.85;1.85;;;13.90;76.80;;;;;;5094559;28;20174;-65
2023/10/30 03:15:37;;;;;;;6.30;1.60;;;13.90;76.80;;;;;;5097052;28;20127;-65
2023/10/30 03:18:03;;;;;;;9.05;1.50;;;13.90;76.80;;;;;;5095849;28;20016;-66
2023/10/30 03:20:29;;;;;;;7.13;1.73;;;13.90;76.80;;;;;;5095086;28;20397;-66
2023/10/30 03:22:55;;;;;;;5.55;1.58;;;13.80;76.70;;;;;;5096456;28;20024;-66
2023/10/30 03:25:20;;;;;;;8.68;1.55;;;13.90;76.80;;;;;;5098179;28;20016;-66
2023/10/30 03:27:46;;;;;;;8.93;2.17;;;13.80;76.70;;;;;;5096226;28;20368;-66
2023/10/30 03:30:12;;;;;;;9.20;2.50;;;13.80;76.70;;;;;;5096397;28;20107;-66
2023/10/30 03:32:38;;;;;;;6.55;1.48;;;13.80;76.80;;;;;;5093544;28;20039;-65
2023/10/30 03:35:04;;;;;;;8.05;1.55;;;13.80;76.90;;;;;;5096585;28;20066;-65
2023/10/30 03:37:29;;;;;;;9.38;2.20;;;13.80;76.90;;;;;;5088566;28;20120;-66
2023/10/30 03:39:57;;;;;;;8.52;1.42;;;13.80;77.00;;;;;;5091981;28;20036;-66
2023/10/30 03:42:23;;;;;;;6.38;1.80;;;13.70;77.00;;;;;;5092915;28;20479;-66
2023/10/30 03:44:48;;;;;;;6.57;1.60;;;13.80;77.10;;;;;;5091311;28;20040;-66
2023/10/30 03:47:16;;;;;;;5.65;1.83;;;13.70;77.00;;;;;;5091229;28;20038;-66
2023/10/30 03:49:42;;;;;;;6.50;1.58;;;13.70;77.00;;;;;;5091643;28;20103;-66
2023/10/30 03:52:07;;;;;;;6.43;1.77;;;13.70;77.00;;;;;;5093629;28;20055;-66
2023/10/30 03:54:33;;;;;;;6.65;1.83;;;13.70;77.00;;;;;;5086967;28;20048;-66
2023/10/30 03:56:59;;;;;;;5.82;1.98;;;13.70;77.10;;;;;;5093244;28;20369;-66
2023/10/30 03:59:26;;;;;;;9.10;2.15;;;13.70;77.10;;;;;;5099027;28;20035;-65
2023/10/30 04:01:52;;;;;;;6.80;1.42;;;13.70;77.20;;;;;;5094450;28;20059;-66
2023/10/30 04:04:18;;;;;;;6.80;1.90;;;13.60;77.20;;;;;;5089855;28;20421;-66
2023/10/30 04:06:44;;;;;;;6.43;1.52;;;13.70;77.20;;;;;;5095047;28;20016;-66
2023/10/30 04:09:09;;;;;;;5.80;1.48;;;13.70;77.30;;;;;;5084079;28;20322;-66
2023/10/30 04:11:35;;;;;;;5.82;1.67;;;13.60;77.20;;;;;;5090574;28;20043;-66
2023/10/30 04:14:01;;;;;;;9.95;1.90;;;13.60;77.30;;;;;;5089316;28;20073;-66
2023/10/30 04:16:28;;;;;;;9.82;2.13;;;13.60;77.30;;;;;;5085903;28;20036;-66
2023/10/30 04:18:54;;;;;;;7.72;1.73;;;13.60;77.30;;;;;;5085842;28;20100;-66
2023/10/30 04:21:20;;;;;;;8.00;1.80;;;13.60;77.30;;;;;;5085743;28;20029;-66
2023/10/30 04:23:45;;;;;;;6.22;1.48;;;13.60;77.40;;;;;;5094166;28;20033;-66
2023/10/30 04:26:11;;;;;;;6.45;1.73;;;13.60;77.40;;;;;;5086049;28;20028;-65
2023/10/30 04:28:37;;;;;;;5.97;1.98;;;13.60;77.50;;;;;;5085678;28;20028;-66
2023/10/30 04:31:06;;;;;;;5.88;1.58;;;13.50;77.40;;;;;;5087715;28;20035;-66
2023/10/30 04:33:32;;;;;;;11.10;2.28;;;13.60;77.50;;;;;;5084905;28;20024;-66
2023/10/30 04:36:02;;;;;;;7.10;1.95;;;13.60;77.50;;;;;;5086069;28;20032;-66
2023/10/30 04:38:33;;;;;;;5.47;1.52;;;13.50;77.50;;;;;;5085053;28;20035;-66
2023/10/30 04:41:03;;;;;;;7.97;1.85;;;13.50;77.60;;;;;;5086553;28;20036;-66
2023/10/30 04:43:30;;;;;;;7.23;1.70;;;13.50;77.60;;;;;;5088093;28;20139;-66
2023/10/30 04:45:56;;;;;;;7.38;1.55;;;13.50;77.70;;;;;;5083996;28;20275;-66
2023/10/30 04:48:22;;;;;;;7.03;2.03;;;13.50;77.80;;;;;;5086853;28;20012;-65
2023/10/30 04:50:47;;;;;;;7.43;2.22;;;13.50;77.80;;;;;;5080156;28;20116;-66
2023/10/30 04:53:13;;;;;;;7.25;1.90;;;13.40;77.80;;;;;;5076222;28;20055;-66
2023/10/30 04:55:39;;;;;;;8.23;1.90;;;13.40;77.80;;;;;;5096013;28;20024;-66
2023/10/30 04:58:05;;;;;;;7.03;1.77;;;13.40;77.90;;;;;;5094401;28;20016;-66
2023/10/30 05:00:31;;;;;;;11.13;2.17;;;13.40;77.90;;;;;;5088141;28;20039;-65
2023/10/30 05:02:57;;;;;;;5.93;1.60;;;13.40;77.90;;;;;;5087379;28;20031;-65
2023/10/30 05:05:23;;;;;;;9.80;1.63;;;13.40;78.00;;;;;;5087187;28;20077;-66
2023/10/30 05:07:48;;;;;;;6.45;1.50;;;13.40;78.00;;;;;;5089057;28;20410;-66
2023/10/30 05:10:14;;;;;;;8.60;1.75;;;13.40;78.10;;;;;;5088094;28;20420;-65
2023/10/30 05:12:40;;;;;;;6.78;1.55;;;13.40;78.00;;;;;;5085834;28;20020;-65
2023/10/30 05:15:08;;;;;;;6.10;1.83;;;13.40;78.10;;;;;;5090965;28;20024;-66
2023/10/30 05:17:37;;;;;;;8.57;2.10;;;13.40;78.20;;;;;;5085607;28;20020;-66
2023/10/30 05:20:04;;;;;;;5.70;1.48;;;13.40;78.20;;;;;;5086592;28;20046;-66
2023/10/30 05:22:32;;;;;;;8.25;2.03;;;13.40;78.20;;;;;;5088508;28;20435;-66
2023/10/30 05:24:58;;;;;;;8.38;1.70;;;13.40;78.20;;;;;;5091696;28;20444;-65
2023/10/30 05:27:25;;;;;;;8.57;1.92;;;13.40;78.20;;;;;;5091659;28;20069;-66
2023/10/30 05:29:51;;;;;;;7.55;1.92;;;13.40;78.30;;;;;;5092296;28;20031;-66
2023/10/30 05:32:17;;;;;;;12.88;1.95;;;13.30;78.30;;;;;;5089608;28;20401;-65
2023/10/30 05:34:43;;;;;;;6.72;1.50;;;13.30;78.40;;;;;;5090412;28;20081;-65
2023/10/30 05:37:09;;;;;;;6.18;1.40;;;13.30;78.40;;;;;;5097477;28;20032;-65
2023/10/30 05:39:35;;;;;;;8.32;2.00;;;13.30;78.50;;;;;;5090502;28;20059;-65
2023/10/30 05:42:02;;;;;;;9.27;1.70;;;13.30;78.50;;;;;;5087092;28;20047;-65
2023/10/30 05:44:31;;;;;;;6.85;1.67;;;13.30;78.50;;;;;;5082488;28;20078;-65
2023/10/30 05:46:58;;;;;;;10.93;2.58;;;13.30;78.50;;;;;;5088102;28;20024;-65
2023/10/30 05:49:25;;;;;;;9.52;1.98;;;13.30;78.50;;;;;;5086381;28;20027;-65
2023/10/30 05:51:52;;;;;;;7.88;1.50;;;13.30;78.50;;;;;;5084184;28;20464;-65
2023/10/30 05:54:18;;;;;;;8.60;2.47;;;13.40;78.60;;;;;;5086816;28;20123;-65
2023/10/30 05:56:43;;;;;;;10.43;1.65;;;13.30;78.50;;;;;;5079333;28;20111;-65
2023/10/30 05:59:09;;;;;;;8.65;1.90;;;13.30;78.60;;;;;;5075750;28;20361;-65
2023/10/30 06:01:35;;;;;;;6.43;1.77;;;13.30;78.60;;;;;;5077302;28;20472;-66
2023/10/30 06:04:00;;;;;;;6.90;1.77;;;13.30;78.70;;;;;;5077881;28;20035;-65
2023/10/30 06:06:26;;;;;;;15.93;2.15;;;13.30;78.70;;;;;;5073220;28;20025;-66
2023/10/30 06:08:52;;;;;;;7.70;1.80;;;13.30;78.70;;;;;;5077715;28;20021;-65
2023/10/30 06:11:18;;;;;;;10.23;2.25;;;13.30;78.70;;;;;;5089603;28;20451;-65
2023/10/30 06:13:43;;;;;;;8.60;2.10;;;13.30;78.80;;;;;;5081527;28;20425;-65
2023/10/30 06:16:18;;;;;;;9.00;1.80;;;13.30;78.80;;;;;;5074077;28;20024;-65
2023/10/30 06:18:45;;;;;;;5.65;1.50;;;13.30;78.80;;;;;;5081686;28;20952;-65
2023/10/30 06:21:18;;;;;;;5.80;1.90;;;13.20;78.80;;;;;;5078365;28;20452;-65
2023/10/30 06:23:44;;;;;;;8.20;1.90;;;13.20;78.90;;;;;;5094876;28;20032;-65
2023/10/30 06:26:11;;;;;;;6.20;1.42;;;13.20;79.00;;;;;;5075998;28;20120;-65
2023/10/30 06:28:37;;;;;;;7.00;1.58;;;13.20;78.90;;;;;;5077007;28;20193;-65
2023/10/30 06:31:23;;;;;;;6.85;1.50;;;13.20;79.00;;;;;;5090991;28;20060;-65
2023/10/30 06:33:49;;;;;;;7.25;1.90;;;13.20;79.00;;;;;;5090104;28;20384;-66
2023/10/30 06:36:15;;;;;;;4.45;1.60;;;13.20;79.10;;;;;;5089916;28;20020;-65
2023/10/30 06:38:41;;;;;;;8.10;1.67;;;13.20;79.10;;;;;;5094859;28;20356;-66
2023/10/30 06:41:07;;;;;;;7.93;1.90;;;13.20;79.10;;;;;;5093948;28;20081;-65
2023/10/30 06:43:33;;;;;;;8.00;1.77;;;13.20;79.10;;;;;;5093850;28;20367;-65
2023/10/30 06:46:03;;;;;;;18.55;2.45;;;13.30;79.10;;;;;;5093697;28;20027;-65
2023/10/30 06:48:29;;;;;;;18.10;3.10;;;13.30;79.10;;;;;;5092044;28;20059;-65
2023/10/30 06:50:56;;;;;;;7.30;1.80;;;13.30;79.00;;;;;;5076045;28;20340;-65
2023/10/30 06:53:23;;;;;;;8.48;1.90;;;13.30;79.10;;;;;;5092183;28;20020;-65
2023/10/30 06:55:50;;;;;;;7.25;1.60;;;13.30;79.00;;;;;;5088462;28;20460;-66
2023/10/30 06:58:16;;;;;;;9.25;2.10;;;13.30;79.10;;;;;;5094407;28;20024;-65
2023/10/30 07:00:42;;;;;;;12.40;2.63;;;13.30;79.20;;;;;;5094083;28;20024;-65
2023/10/30 07:03:08;;;;;;;9.05;2.33;;;13.30;79.10;;;;;;5093775;28;20032;-65
2023/10/30 07:05:34;;;;;;;9.68;2.58;;;13.40;79.10;;;;;;5092255;28;20040;-65
2023/10/30 07:08:00;;;;;;;7.10;1.83;;;13.40;79.10;;;;;;5094082;28;20476;-65
2023/10/30 07:10:26;;;;;;;8.38;2.13;;;13.40;79.10;;;;;;5090341;28;20079;-65
2023/10/30 07:12:51;;;;;;;8.57;2.20;;;13.40;79.00;;;;;;5092289;28;20092;-65
2023/10/30 07:15:17;;;;;;;10.93;2.38;;;13.40;78.90;;;;;;5092048;28;20426;-65
2023/10/30 07:17:43;;;;;;;4.55;1.60;;;13.50;78.90;;;;;;5090158;28;20032;-65
2023/10/30 07:20:09;;;;;;;7.68;1.98;;;13.50;78.80;;;;;;5081598;28;20465;-65
2023/10/30 07:22:36;;;;;;;8.82;1.90;;;13.60;78.80;;;;;;5076925;28;20032;-65
2023/10/30 07:25:02;;;;;;;9.93;2.17;;;13.60;78.80;;;;;;5078303;28;20468;-65
2023/10/30 07:27:28;;;;;;;8.77;2.33;;;13.60;78.80;;;;;;5087804;28;20031;-65
2023/10/30 07:29:54;;;;;;;6.70;1.73;;;13.60;78.80;;;;;;5093471;28;20020;-66
2023/10/30 07:32:19;;;;;;;8.20;1.80;;;13.70;78.80;;;;;;5082909;28;20028;-65
2023/10/30 07:34:45;;;;;;;7.60;1.98;;;13.70;78.70;;;;;;5076072;28;20097;-65
2023/10/30 07:37:11;;;;;;;9.88;1.95;;;13.70;78.70;;;;;;5091526;28;20411;-67
2023/10/30 07:39:37;;;;;;;9.77;2.38;;;13.70;78.60;;;;;;5093931;28;20098;-67
2023/10/30 07:42:03;;;;;;;8.13;1.83;;;13.80;78.70;;;;;;5107700;28;20024;-68
2023/10/30 07:44:29;;;;;;;10.60;2.47;;;13.80;78.60;;;;;;5088975;28;20444;-65
2023/10/30 07:46:55;;;;;;;6.03;1.33;;;13.80;78.60;;;;;;5082661;28;20027;-65
2023/10/30 07:49:21;;;;;;;7.93;1.98;;;13.80;78.60;;;;;;5076060;28;20025;-65
2023/10/30 07:51:46;;;;;;;6.88;1.88;;;13.80;78.60;;;;;;5090431;28;20128;-65
2023/10/30 07:54:12;;;;;;;8.82;2.13;;;13.80;78.60;;;;;;5081620;28;20091;-65
2023/10/30 07:56:38;;;;;;;5.88;1.88;;;13.80;78.60;;;;;;5070260;28;20027;-66
2023/10/30 07:59:07;;;;;;;8.68;2.22;;;13.80;78.60;;;;;;5092749;28;20115;-65
2023/10/30 08:01:36;;;;;;;8.48;2.03;;;13.80;78.60;;;;;;5085654;28;20406;-65
2023/10/30 08:04:02;;;;;;;11.88;1.92;;;13.80;78.60;;;;;;5088014;28;20139;-65
2023/10/30 08:06:28;;;;;;;9.10;2.40;;;13.80;78.60;;;;;;5083936;28;20111;-65
2023/10/30 08:08:54;;;;;;;9.50;2.20;;;13.80;79.20;;;;;;5090806;28;20089;-65
2023/10/30 08:11:19;;;;;;;7.40;2.35;;;13.80;78.60;;;;;;5088406;28;20093;-67
2023/10/30 08:13:46;;;;;;;8.75;2.35;;;13.90;78.60;;;;;;5089976;28;20028;-67
2023/10/30 08:16:12;;;;;;;9.30;1.85;;;13.90;78.60;;;;;;5100747;28;20103;-72
2023/10/30 08:18:39;;;;;;;8.82;2.13;;;14.00;78.60;;;;;;5063173;28;20233;-68
2023/10/30 08:21:04;;;;;;;11.68;2.08;;;14.00;78.60;;;;;;5088795;28;20338;-65
2023/10/30 08:23:31;;;;;;;9.73;2.17;;;14.00;78.50;;;;;;5109740;28;20046;-65
2023/10/30 08:25:56;;;;;;;9.52;2.25;;;14.10;78.40;;;;;;5090843;28;20389;-65
2023/10/30 08:28:22;;;;;;;9.40;1.98;;;14.10;78.30;;;;;;5087608;28;20016;-65
2023/10/30 08:30:48;;;;;;;9.25;2.25;;;14.20;78.20;;;;;;5071409;28;20349;-65
2023/10/30 08:33:14;;;;;;;9.27;2.20;;;14.30;78.10;;;;;;5088946;28;20127;-65
2023/10/30 08:35:40;;;;;;;10.13;1.88;;;14.40;77.90;;;;;;5090002;28;20020;-65
2023/10/30 08:38:05;;;;;;;7.72;2.10;;;14.50;77.80;;;;;;5088627;28;20043;-65
2023/10/30 08:40:31;;;;;;;7.22;1.67;;;14.50;77.80;;;;;;5088253;28;20089;-65
2023/10/30 08:42:57;;;;;;;6.38;1.65;;;14.60;77.60;;;;;;5088268;28;20036;-66
2023/10/30 08:45:26;;;;;;;8.45;2.00;;;14.70;77.40;;;;;;5087120;28;20024;-66
2023/10/30 08:47:51;;;;;;;8.98;2.45;;;14.80;77.20;;;;;;5089291;28;20043;-65
2023/10/30 08:50:17;;;;;;;8.85;1.92;;;14.90;77.10;;;;;;5083479;28;20024;-65
2023/10/30 08:52:43;;;;;;;8.20;1.80;;;15.00;76.90;;;;;;5096856;28;20028;-66
2023/10/30 08:55:09;;;;;;;7.30;1.75;;;15.10;76.80;;;;;;5083894;28;20051;-65
2023/10/30 08:57:35;;;;;;;8.57;1.83;;;15.10;76.60;;;;;;5086801;28;20111;-65
2023/10/30 09:00:01;;;;;;;9.57;2.00;;;15.20;76.60;;;;;;5086149;28;20033;-65
2023/10/30 09:02:26;;;;;;;8.13;2.05;;;15.10;76.60;;;;;;5071235;28;20024;-65
2023/10/30 09:04:52;;;;;;;13.07;2.53;;;15.10;76.50;;;;;;5087667;28;20122;-65
2023/10/30 09:07:18;;;;;;;7.72;2.38;;;15.10;76.60;;;;;;5089042;28;20119;-66
2023/10/30 09:09:45;;;;;;;10.93;2.50;;;15.10;76.60;;;;;;5079740;28;20576;-67
2023/10/30 09:12:11;;;;;;;10.27;2.25;;;15.20;76.60;;;;;;5086733;28;20085;-64
2023/10/30 09:14:37;;;;;;;7.38;1.88;;;15.20;76.50;;;;;;5085733;28;20042;-64
2023/10/30 09:17:02;;;;;;;7.55;1.90;;;15.20;76.40;;;;;;5078271;28;20029;-64
2023/10/30 09:19:28;;;;;;;5.80;1.70;;;15.20;76.40;;;;;;5086443;28;20435;-64
2023/10/30 09:21:54;;;;;;;9.32;1.90;;;15.20;76.40;;;;;;5076777;28;20056;-65
2023/10/30 09:24:21;;;;;;;7.85;2.10;;;15.20;76.40;;;;;;5086681;28;20032;-64
2023/10/30 09:26:46;;;;;;;11.30;1.80;;;15.20;76.40;;;;;;5087776;28;20484;-67
2023/10/30 09:29:12;;;;;;;9.68;1.90;;;15.20;76.40;;;;;;5087348;28;20052;-64
2023/10/30 09:31:38;;;;;;;8.02;2.03;;;15.30;76.40;;;;;;5084740;28;20093;-64
2023/10/30 09:34:04;;;;;;;8.43;1.95;;;15.20;76.20;;;;;;5085057;28;20468;-64
2023/10/30 09:36:30;;;;;;;7.72;2.33;;;15.30;76.20;;;;;;5085152;28;20024;-64
2023/10/30 09:38:55;;;;;;;9.45;2.30;;;15.30;76.10;;;;;;5085545;28;20028;-64
2023/10/30 09:41:22;;;;;;;7.82;2.00;;;15.40;76.10;;;;;;5085224;28;20028;-65
2023/10/30 09:43:49;;;;;;;7.38;2.00;;;15.50;75.90;;;;;;5087515;28;20091;-65
2023/10/30 09:46:16;;;;;;;9.93;2.05;;;15.50;75.80;;;;;;5087798;28;20035;-65
2023/10/30 09:48:44;;;;;;;8.68;2.30;;;15.60;76.40;;;;;;5087237;28;20094;-65
2023/10/30 09:51:11;;;;;;;7.97;2.47;;;15.60;75.60;;;;;;5086172;28;20348;-65
2023/10/30 09:53:39;;;;;;;6.13;1.60;;;15.60;75.50;;;;;;5087749;28;20028;-65
2023/10/30 09:56:06;;;;;;;8.35;2.17;;;15.60;75.50;;;;;;5084098;28;20035;-64
2023/10/30 09:58:33;;;;;;;6.63;1.63;;;15.60;75.60;;;;;;5090504;28;20035;-64
2023/10/30 10:01:02;;;;;;;10.40;2.20;;;15.60;75.70;;;;;;5075355;28;20032;-65
2023/10/30 10:03:29;;;;;;;4.88;1.63;;;15.60;75.70;;;;;;5089536;28;20470;-66
2023/10/30 10:05:56;;;;;;;6.65;1.80;;;15.60;75.70;;;;;;5076143;28;20094;-67
2023/10/30 10:08:22;;;;;;;13.80;1.83;;;15.60;75.60;;;;;;5084695;28;20029;-66
2023/10/30 10:11:02;;;;;;;8.27;2.03;;;15.70;75.60;;;;;;5091496;28;20081;-65
2023/10/30 10:13:33;;;;;;;8.30;2.00;;;15.70;75.60;;;;;;5092793;28;20056;-65
2023/10/30 10:16:02;;;;;;;8.80;2.33;;;15.70;75.60;;;;;;5095727;28;20361;-65
2023/10/30 10:18:33;;;;;;;8.27;2.15;;;15.70;75.60;;;;;;5092818;28;20028;-65
2023/10/30 10:21:03;;;;;;;;;;;15.70;75.70;;;;;;5108022;28;20039;-65
2023/10/30 10:23:36;;;;;;;6.28;2.10;;;15.70;75.70;;;;;;5114002;28;20236;-65
2023/10/30 10:26:17;;;;;;;9.65;2.55;;;15.70;75.60;;;;;;5102488;28;20031;-65
2023/10/30 10:28:47;;;;;;;12.38;2.03;;;15.70;75.50;;;;;;5104519;28;20463;-66
2023/10/30 10:31:14;;;;;;;5.95;1.77;;;15.70;75.60;;;;;;5109141;28;20028;-66
2023/10/30 10:33:39;;;;;;;7.10;2.00;;;15.60;75.60;;;;;;5109990;28;20024;-66
2023/10/30 10:36:06;;;;;;;6.03;1.77;;;15.70;75.80;;;;;;5108246;28;20042;-65
2023/10/30 10:38:32;;;;;;;7.88;1.90;;;15.60;75.70;;;;;;5101481;28;20411;-66
2023/10/30 10:40:59;;;;;;;8.93;2.05;;;15.60;75.80;;;;;;5112010;28;20035;-65
2023/10/30 10:43:28;;;;;;;8.20;1.95;;;15.60;75.90;;;;;;5096401;28;20048;-66
2023/10/30 10:45:56;;;;;;;8.65;1.85;;;15.60;76.00;;;;;;5074095;28;20390;-65
2023/10/30 10:48:24;;;;;;;6.45;1.52;;;15.60;76.00;;;;;;5069425;28;20448;-66
2023/10/30 10:50:50;;;;;;;7.47;2.03;;;15.60;76.00;;;;;;5074395;28;20027;-65
2023/10/30 10:53:20;;;;;;;8.98;1.80;;;15.50;75.90;;;;;;5073255;28;20107;-66
2023/10/30 10:55:48;;;;;;;9.00;2.33;;;15.50;76.00;;;;;;5085950;28;20438;-65
2023/10/30 10:58:19;;;;;;;4.90;1.58;;;15.50;76.10;;;;;;5082526;28;20059;-65
2023/10/30 11:00:50;;;;;;;7.85;2.13;;;15.40;76.20;;;;;;5076204;28;20063;-65
2023/10/30 11:03:17;;;;;;;10.30;2.22;;;15.50;76.30;;;;;;5091119;28;20100;-65
2023/10/30 11:05:44;;;;;;;7.30;1.77;;;15.50;76.30;;;;;;5076462;28;20291;-65
2023/10/30 11:08:11;;;;;;;8.30;2.15;;;15.50;76.30;;;;;;5081092;28;20028;-65
2023/10/30 11:10:46;;;;;;;6.95;1.50;;;15.60;76.20;;;;;;5073627;28;20029;-65
2023/10/30 11:13:29;;;;;;;7.38;1.70;;;15.70;76.20;;;;;;5079352;28;20457;-65
2023/10/30 11:16:35;;;;;;;7.53;1.85;;;15.70;76.20;;;;;;5076813;28;20036;-65
2023/10/30 11:19:00;;;;;;;11.38;2.58;;;15.70;76.00;;;;;;5073391;28;20464;-65
2023/10/30 11:21:27;;;;;;;12.07;2.50;;;15.70;76.00;;;;;;5072315;28;20021;-65
2023/10/30 11:23:56;;;;;;;8.85;1.90;;;15.70;75.90;;;;;;5081947;28;20516;-65
2023/10/30 11:26:38;;;;;;;7.93;2.20;;;15.80;76.00;;;;;;5077891;28;20029;-66
2023/10/30 11:29:23;;;;;;;11.13;2.00;;;15.80;75.90;;;;;;5081063;28;20381;-66
2023/10/30 11:31:54;;;;;;;7.53;1.85;;;15.70;75.80;;;;;;5107652;28;20122;-65
2023/10/30 11:34:31;;;;;;;9.35;2.10;;;15.80;75.90;;;;;;5096840;28;20452;-65
2023/10/30 11:37:03;;;;;;;10.27;2.28;;;15.80;75.80;;;;;;5108290;28;20046;-65
2023/10/30 11:39:33;;;;;;;8.02;2.20;;;15.80;75.90;;;;;;5117295;28;20039;-65
2023/10/30 11:41:59;;;;;;;8.02;1.95;;;15.80;75.90;;;;;;5117252;28;20032;-65
2023/10/30 11:44:31;;;;;;;7.05;1.80;;;15.90;75.90;;;;;;5106635;28;20171;-65
2023/10/30 11:46:58;;;;;;;7.60;1.73;;;15.90;75.90;;;;;;5089708;28;20050;-65
2023/10/30 11:49:30;;;;;;;7.57;1.98;;;15.90;75.80;;;;;;5075689;28;20025;-65
2023/10/30 11:51:56;;;;;;;7.78;1.55;;;15.90;75.80;;;;;;5076906;28;20348;-65
2023/10/30 11:54:32;;;;;;;9.15;1.95;;;15.90;75.80;;;;;;5080120;28;20107;-65
2023/10/30 11:57:00;;;;;;;7.72;1.73;;;15.90;75.80;;;;;;5082236;28;20048;-65
2023/10/30 11:59:29;;;;;;;6.70;2.10;;;15.90;75.90;;;;;;5076804;28;20409;-65
2023/10/30 12:01:59;;;;;;;7.28;1.77;;;15.90;76.10;;;;;;5076657;28;20302;-65
2023/10/30 12:04:26;;;;;;;7.30;2.28;;;15.90;76.20;;;;;;5089010;28;20495;-65
2023/10/30 12:06:52;;;;;;;6.60;1.73;;;15.80;76.30;;;;;;5092183;28;20035;-65
2023/10/30 12:09:19;;;;;;;5.15;1.85;;;15.80;76.50;;;;;;5090941;28;20020;-65
2023/10/30 12:11:45;;;;;;;7.22;2.10;;;15.70;76.60;;;;;;5101615;28;20035;-65
2023/10/30 12:14:14;;;;;;;5.93;1.60;;;15.70;76.90;;;;;;5089857;28;20094;-65
2023/10/30 12:16:50;;;;;;;9.23;1.77;;;15.70;77.10;;;;;;5094726;28;20052;-64
2023/10/30 12:19:19;;;;;;;7.05;1.70;;;15.70;77.40;;;;;;5099605;28;20035;-65
2023/10/30 12:21:46;;;;;;;11.40;2.03;;;15.70;77.60;;;;;;5096185;28;20036;-65
2023/10/30 12:24:14;;;;;;;10.38;2.45;;;15.70;77.70;;;;;;5094016;28;20036;-64
2023/10/30 12:26:40;;;;;;;8.45;1.80;;;15.70;77.70;;;;;;5086243;28;20386;-65
2023/10/30 12:29:06;;;;;;;6.80;1.92;;;15.70;77.80;;;;;;5104495;28;20059;-65
2023/10/30 12:31:32;;;;;;;7.45;1.58;;;15.70;77.80;;;;;;5101519;28;20128;-65
2023/10/30 12:34:12;;;;;;;7.57;1.60;;;15.70;77.90;;;;;;5102827;28;20024;-65
2023/10/30 12:36:39;;;;;;;5.95;1.77;;;15.70;77.90;;;;;;5088846;28;20028;-65
2023/10/30 12:39:30;;;;;;;9.15;2.00;;;15.70;77.90;;;;;;5093862;28;20517;-65
2023/10/30 12:41:56;;;;;;;11.60;2.10;;;15.70;78.00;;;;;;5089996;28;20041;-64
2023/10/30 12:44:29;;;;;;;5.72;1.70;;;15.70;78.10;;;;;;5094592;28;20095;-65